createdAt,value
2018-05-04T00:00:56.060Z,89.90
2018-05-04T00:03:23.729Z,89.66
2018-05-04T00:05:51.428Z,89.65
2018-05-04T00:08:19.209Z,88.88
2018-05-04T00:10:46.920Z,89.25
2018-05-04T00:13:14.603Z,89.45
2018-05-04T00:15:42.204Z,89.25
2018-05-04T00:18:09.865Z,89.27
2018-05-04T00:20:37.522Z,89.06
2018-05-04T00:23:05.158Z,88.53
2018-05-04T00:25:32.956Z,88.46
2018-05-04T00:28:00.585Z,88.73
2018-05-04T00:30:28.229Z,87.78
2018-05-04T00:32:55.915Z,87.71
2018-05-04T00:35:23.510Z,88.08
2018-05-04T00:37:51.163Z,89.14
2018-05-04T00:40:18.763Z,89.52
2018-05-04T00:42:46.659Z,89.16
2018-05-04T00:45:14.280Z,89.20
2018-05-04T00:47:41.956Z,89.04
2018-05-04T00:50:09.648Z,88.91
2018-05-04T00:52:37.257Z,88.83
2018-05-04T00:55:04.914Z,88.02
2018-05-04T00:57:32.574Z,88.01
2018-05-04T01:00:00.180Z,87.83
2018-05-04T01:02:27.838Z,87.42
2018-05-04T01:04:55.479Z,88.29
2018-05-04T01:07:23.089Z,88.07
2018-05-04T01:09:50.767Z,88.75
2018-05-04T01:12:18.846Z,88.51
2018-05-04T01:14:46.507Z,88.23
2018-05-04T01:17:14.219Z,88.71
2018-05-04T01:19:41.848Z,88.59
2018-05-04T01:22:09.497Z,88.82
2018-05-04T01:24:37.125Z,88.77
2018-05-04T01:27:04.813Z,89.18
2018-05-04T01:29:32.469Z,89.71
2018-05-04T01:32:00.130Z,90.05
2018-05-04T01:34:27.737Z,89.65
2018-05-04T01:36:55.397Z,89.38
2018-05-04T01:39:23.037Z,89.30
2018-05-04T01:41:50.707Z,89.03
2018-05-04T01:44:18.364Z,89.45
2018-05-04T01:46:45.976Z,89.17
2018-05-04T01:49:13.613Z,88.72
2018-05-04T01:51:41.567Z,88.76
2018-05-04T01:54:09.152Z,88.83
2018-05-04T01:56:36.794Z,88.72
2018-05-04T01:59:04.398Z,88.49
2018-05-04T02:01:32.114Z,88.78
2018-05-04T02:03:59.713Z,88.94
2018-05-04T02:06:27.440Z,89.79
2018-05-04T02:08:55.111Z,89.90
2018-05-04T02:11:22.809Z,89.33
2018-05-04T02:13:50.417Z,89.29
2018-05-04T02:16:18.091Z,90.46
2018-05-04T02:18:45.779Z,90.50
2018-05-04T02:21:13.474Z,91.01
2018-05-04T02:23:41.069Z,91.41
2018-05-04T02:26:09.230Z,92.01
2018-05-04T02:28:37.007Z,91.79
2018-05-04T02:31:04.754Z,90.90
2018-05-04T02:33:32.526Z,90.40
2018-05-04T02:36:00.453Z,90.39
2018-05-04T02:38:28.293Z,89.90
2018-05-04T02:40:56.120Z,89.36
2018-05-04T02:43:23.867Z,90.35
2018-05-04T02:45:51.590Z,90.49
2018-05-04T02:48:19.306Z,90.65
2018-05-04T02:50:46.901Z,90.22
2018-05-04T02:53:14.594Z,90.53
2018-05-04T02:55:42.608Z,90.69
2018-05-04T02:58:10.285Z,90.72
2018-05-04T03:00:38.134Z,90.50
2018-05-04T03:03:05.782Z,90.61
2018-05-04T03:05:33.432Z,91.58
2018-05-04T03:08:01.029Z,90.63
2018-05-04T03:10:28.695Z,90.29
2018-05-04T03:12:56.395Z,91.08
2018-05-04T03:15:24.026Z,91.62
2018-05-04T03:17:51.722Z,91.04
2018-05-04T03:20:19.344Z,90.62
2018-05-04T03:22:46.995Z,90.70
2018-05-04T03:25:15.392Z,90.57
2018-05-04T03:27:43.109Z,90.26
2018-05-04T03:30:10.716Z,90.10
2018-05-04T03:32:38.356Z,89.82
2018-05-04T03:35:06.036Z,89.69
2018-05-04T03:37:33.742Z,90.03
2018-05-04T03:40:01.398Z,89.63
2018-05-04T03:42:28.995Z,89.77
2018-05-04T03:44:56.626Z,89.96
2018-05-04T03:47:24.226Z,89.89
2018-05-04T03:49:51.880Z,89.70
2018-05-04T03:52:19.491Z,89.66
2018-05-04T03:54:47.176Z,89.50
2018-05-04T03:57:26.724Z,89.16
2018-05-04T04:00:06.139Z,89.52
2018-05-04T04:02:45.494Z,89.40
2018-05-04T04:05:13.186Z,89.32
2018-05-04T04:07:40.797Z,89.92
2018-05-04T04:10:08.488Z,89.96
2018-05-04T04:12:36.202Z,90.30
2018-05-04T04:15:03.836Z,90.25
2018-05-04T04:17:31.513Z,89.75
2018-05-04T04:19:59.119Z,90.56
2018-05-04T04:22:26.841Z,90.07
2018-05-04T04:24:54.502Z,90.01
2018-05-04T04:27:22.149Z,89.67
2018-05-04T04:29:49.788Z,89.73
2018-05-04T04:32:19.690Z,89.73
2018-05-04T04:34:47.336Z,90.84
2018-05-04T04:37:15.038Z,90.89
2018-05-04T04:39:42.706Z,90.26
2018-05-04T04:42:10.367Z,89.61
2018-05-04T04:44:37.989Z,89.66
2018-05-04T04:47:05.632Z,89.56
2018-05-04T04:49:33.289Z,89.72
2018-05-04T04:52:01.004Z,89.64
2018-05-04T04:54:28.702Z,89.19
2018-05-04T04:56:56.364Z,89.13
2018-05-04T04:59:24.985Z,89.35
2018-05-04T05:01:52.733Z,89.44
2018-05-04T05:04:20.421Z,89.66
2018-05-04T05:06:48.044Z,89.67
2018-05-04T05:09:15.682Z,89.19
2018-05-04T05:11:43.347Z,89.59
2018-05-04T05:14:10.996Z,88.93
2018-05-04T05:16:38.673Z,88.87
2018-05-04T05:19:06.490Z,90.34
2018-05-04T05:21:34.117Z,90.78
2018-05-04T05:24:01.889Z,90.94
2018-05-04T05:26:29.626Z,90.99
2018-05-04T05:28:57.301Z,91.98
2018-05-04T05:31:24.959Z,92.59
2018-05-04T05:33:52.590Z,92.34
2018-05-04T05:36:20.279Z,92.11
2018-05-04T05:38:47.945Z,91.48
2018-05-04T05:41:16.859Z,90.93
2018-05-04T05:43:45.651Z,91.40
2018-05-04T05:46:13.384Z,90.84
2018-05-04T05:48:41.093Z,90.04
2018-05-04T05:51:08.860Z,89.77
2018-05-04T05:53:36.645Z,89.58
2018-05-04T05:56:04.343Z,89.31
2018-05-04T05:58:31.936Z,89.35
2018-05-04T06:00:59.604Z,89.48
2018-05-04T06:03:27.313Z,90.05
2018-05-04T06:05:55.011Z,90.22
2018-05-04T06:08:22.641Z,90.24
2018-05-04T06:10:50.308Z,89.43
2018-05-04T06:13:17.971Z,89.80
2018-05-04T06:15:45.596Z,88.84
2018-05-04T06:18:13.347Z,88.67
2018-05-04T06:20:41.063Z,88.94
2018-05-04T06:23:08.712Z,89.28
2018-05-04T06:25:36.374Z,88.58
2018-05-04T06:28:04.058Z,88.29
2018-05-04T06:30:31.662Z,87.64
2018-05-04T06:32:59.404Z,87.71
2018-05-04T06:35:27.002Z,87.43
2018-05-04T06:37:54.746Z,87.65
2018-05-04T06:40:22.612Z,87.65
2018-05-04T06:42:50.436Z,87.62
2018-05-04T06:45:18.142Z,87.66
2018-05-04T06:47:45.780Z,88.46
2018-05-04T06:50:13.512Z,86.97
2018-05-04T06:52:41.263Z,86.56
2018-05-04T06:55:08.964Z,86.06
2018-05-04T06:57:36.668Z,85.66
2018-05-04T07:00:04.435Z,86.06
2018-05-04T07:02:32.075Z,85.40
2018-05-04T07:04:59.749Z,85.11
2018-05-04T07:07:27.400Z,84.51
2018-05-04T07:09:55.067Z,83.42
2018-05-04T07:12:22.693Z,82.36
2018-05-04T07:14:50.365Z,82.49
2018-05-04T07:17:18.060Z,82.57
2018-05-04T07:19:45.657Z,81.87
2018-05-04T07:22:13.284Z,83.02
2018-05-04T07:24:40.953Z,82.15
2018-05-04T07:27:08.588Z,81.73
2018-05-04T07:29:36.275Z,82.73
2018-05-04T07:32:03.922Z,84.29
2018-05-04T07:34:31.624Z,83.73
2018-05-04T07:36:59.290Z,84.07
2018-05-04T07:39:26.977Z,83.66
2018-05-04T07:41:54.697Z,81.75
2018-05-04T07:44:22.357Z,78.75
2018-05-04T07:46:49.983Z,80.68
2018-05-04T07:49:17.636Z,80.21
2018-05-04T07:51:45.302Z,77.89
2018-05-04T07:54:12.916Z,78.60
2018-05-04T07:56:40.713Z,78.34
2018-05-04T07:59:08.409Z,77.83
2018-05-04T08:01:36.479Z,76.20
2018-05-04T08:04:04.156Z,78.38
2018-05-04T08:06:31.889Z,78.28
2018-05-04T08:08:59.528Z,77.46
2018-05-04T08:11:27.512Z,79.30
2018-05-04T08:13:55.206Z,78.17
2018-05-04T08:16:22.917Z,78.02
2018-05-04T08:18:51.432Z,79.13
2018-05-04T08:21:19.221Z,78.36
2018-05-04T08:23:46.924Z,77.78
2018-05-04T08:26:14.572Z,75.98
2018-05-04T08:28:42.226Z,77.10
2018-05-04T08:31:09.958Z,75.36
2018-05-04T08:33:37.558Z,74.64
2018-05-04T08:36:05.187Z,74.98
2018-05-04T08:38:32.858Z,75.43
2018-05-04T08:41:00.485Z,73.61
2018-05-04T08:43:28.123Z,73.26
2018-05-04T08:45:55.837Z,71.76
2018-05-04T08:48:23.523Z,72.12
2018-05-04T08:50:51.240Z,71.52
2018-05-04T08:53:19.740Z,71.75
2018-05-04T08:55:48.483Z,74.97
2018-05-04T08:58:16.146Z,72.91
2018-05-04T09:00:45.005Z,69.30
2018-05-04T09:03:13.558Z,70.22
2018-05-04T09:05:41.366Z,75.49
2018-05-04T09:08:09.022Z,72.34
2018-05-04T09:10:37.354Z,71.40
2018-05-04T09:13:05.136Z,70.82
2018-05-04T09:15:33.674Z,72.86
2018-05-04T09:18:01.450Z,73.38
2018-05-04T09:20:29.090Z,72.20
2018-05-04T09:22:56.765Z,72.59
2018-05-04T09:25:24.465Z,72.25
2018-05-04T09:27:52.076Z,71.27
2018-05-04T09:30:19.720Z,70.96
2018-05-04T09:32:48.435Z,71.38
2018-05-04T09:35:16.115Z,72.18
2018-05-04T09:37:43.922Z,72.78
2018-05-04T09:40:11.551Z,72.50
2018-05-04T09:42:39.437Z,73.66
2018-05-04T09:45:07.096Z,74.11
2018-05-04T09:47:34.956Z,74.07
2018-05-04T09:50:02.651Z,74.89
2018-05-04T09:52:30.264Z,73.47
2018-05-04T09:54:57.874Z,74.84
2018-05-04T09:57:25.579Z,74.44
2018-05-04T09:59:53.908Z,73.34
2018-05-04T10:02:21.574Z,71.61
2018-05-04T10:04:50.120Z,73.47
2018-05-04T10:07:17.808Z,69.51
2018-05-04T10:09:45.422Z,70.08
2018-05-04T10:12:13.111Z,71.60
2018-05-04T10:14:40.768Z,70.94
2018-05-04T10:17:08.365Z,71.11
2018-05-04T10:19:36.025Z,71.07
2018-05-04T10:22:03.687Z,71.99
2018-05-04T10:24:31.331Z,70.65
2018-05-04T10:26:59.008Z,71.14
2018-05-04T10:29:26.749Z,70.63
2018-05-04T10:31:54.415Z,69.88
2018-05-04T10:34:22.108Z,69.25
2018-05-04T10:36:49.782Z,68.30
2018-05-04T10:39:17.447Z,70.00
2018-05-04T10:41:45.110Z,71.30
2018-05-04T10:44:12.766Z,69.23
2018-05-04T10:46:40.475Z,70.46
2018-05-04T10:49:08.089Z,71.08
2018-05-04T10:51:35.774Z,70.24
2018-05-04T10:54:03.439Z,70.87
2018-05-04T10:56:31.152Z,71.37
2018-05-04T10:58:58.799Z,70.50
2018-05-04T11:01:26.543Z,70.36
2018-05-04T11:03:54.166Z,70.48
2018-05-04T11:06:21.887Z,70.31
2018-05-04T11:08:49.591Z,68.42
2018-05-04T11:11:17.215Z,66.20
2018-05-04T11:13:44.915Z,68.80
2018-05-04T11:16:12.663Z,64.86
2018-05-04T11:18:40.403Z,67.00
2018-05-04T11:21:08.066Z,67.56
2018-05-04T11:23:35.778Z,66.48
2018-05-04T11:26:03.453Z,68.54
2018-05-04T11:28:31.094Z,66.33
2018-05-04T11:30:58.939Z,66.15
2018-05-04T11:33:26.571Z,68.33
2018-05-04T11:35:54.338Z,66.61
2018-05-04T11:38:22.033Z,67.98
2018-05-04T11:40:49.714Z,68.42
2018-05-04T11:43:17.407Z,67.49
2018-05-04T11:45:45.302Z,64.44
2018-05-04T11:48:12.989Z,65.08
2018-05-04T11:50:40.648Z,64.81
2018-05-04T11:53:08.314Z,64.04
2018-05-04T11:55:35.972Z,65.30
2018-05-04T11:58:03.685Z,66.92
2018-05-04T12:00:31.400Z,63.84
2018-05-04T12:02:59.134Z,64.49
2018-05-04T12:05:26.929Z,64.09
2018-05-04T12:07:54.749Z,60.70
2018-05-04T12:10:22.493Z,64.87
2018-05-04T12:12:50.125Z,60.91
2018-05-04T12:15:17.790Z,61.66
2018-05-04T12:17:45.683Z,61.56
2018-05-04T12:20:13.370Z,60.68
2018-05-04T12:22:41.058Z,61.23
2018-05-04T12:25:08.728Z,62.91
2018-05-04T12:27:36.401Z,62.97
2018-05-04T12:30:04.368Z,63.45
2018-05-04T12:32:32.006Z,62.80
2018-05-04T12:37:26.577Z,61.94
2018-05-04T12:39:54.913Z,63.08
2018-05-04T12:42:23.837Z,63.85
2018-05-04T12:44:51.617Z,62.32
2018-05-04T12:47:20.119Z,63.07
2018-05-04T12:49:47.791Z,62.49
2018-05-04T12:52:15.557Z,63.53
2018-05-04T12:54:43.261Z,62.73
2018-05-04T12:57:11.080Z,59.99
2018-05-04T12:59:38.752Z,63.97
2018-05-04T13:02:06.374Z,63.43
2018-05-04T13:04:34.275Z,60.79
2018-05-04T13:07:01.871Z,61.11
2018-05-04T13:09:29.607Z,61.02
2018-05-04T13:11:57.246Z,61.08
2018-05-04T13:14:25.867Z,60.88
2018-05-04T13:16:53.577Z,61.37
2018-05-04T13:19:21.206Z,59.09
2018-05-04T13:21:48.884Z,59.74
2018-05-04T13:24:16.495Z,59.63
2018-05-04T13:26:44.187Z,59.90
2018-05-04T13:29:11.820Z,60.70
2018-05-04T13:31:39.512Z,61.51
2018-05-04T13:34:07.122Z,63.06
2018-05-04T13:36:34.792Z,62.67
2018-05-04T13:39:02.491Z,62.83
2018-05-04T13:41:30.201Z,63.53
2018-05-04T13:43:57.904Z,63.36
2018-05-04T13:46:25.536Z,61.61
2018-05-04T13:48:53.983Z,63.60
2018-05-04T13:51:21.718Z,64.31
2018-05-04T13:53:49.272Z,64.34
2018-05-04T13:56:16.970Z,64.52
2018-05-04T13:58:44.658Z,64.04
2018-05-04T14:01:12.565Z,61.50
2018-05-04T14:03:40.224Z,62.06
2018-05-04T14:06:07.894Z,61.99
2018-05-04T14:08:35.697Z,63.20
2018-05-04T14:11:03.876Z,61.64
2018-05-04T14:13:31.574Z,62.21
2018-05-04T14:15:59.286Z,61.66
2018-05-04T14:18:26.988Z,62.67
2018-05-04T14:20:54.671Z,63.91
2018-05-04T14:23:22.360Z,62.38
2018-05-04T14:25:50.048Z,62.11
2018-05-04T14:28:17.715Z,64.29
2018-05-04T14:30:45.419Z,64.50
2018-05-04T14:33:13.081Z,65.15
2018-05-04T14:35:40.844Z,64.36
2018-05-04T14:38:08.546Z,63.77
2018-05-04T14:40:36.253Z,64.18
2018-05-04T14:43:03.912Z,65.34
2018-05-04T14:45:31.559Z,64.68
2018-05-04T14:47:59.186Z,64.67
2018-05-04T14:50:26.866Z,65.01
2018-05-04T14:52:54.673Z,65.18
2018-05-04T14:55:22.339Z,65.00
2018-05-04T14:57:50.100Z,64.70
2018-05-04T15:00:17.734Z,64.33
2018-05-04T15:02:45.392Z,63.70
2018-05-04T15:05:13.190Z,64.03
2018-05-04T15:07:40.917Z,62.29
2018-05-04T15:10:08.669Z,63.84
2018-05-04T15:12:36.503Z,65.54
2018-05-04T15:15:04.253Z,65.13
2018-05-04T15:17:33.144Z,65.50
2018-05-04T15:20:00.861Z,64.20
2018-05-04T15:22:28.600Z,66.10
2018-05-04T15:24:56.402Z,68.44
2018-05-04T15:27:24.090Z,67.49
2018-05-04T15:29:51.749Z,70.39
2018-05-04T15:32:20.395Z,73.85
2018-05-04T15:34:48.121Z,75.23
2018-05-04T15:37:16.516Z,77.94
2018-05-04T15:39:44.309Z,75.20
2018-05-04T15:42:11.965Z,76.15
2018-05-04T15:44:39.713Z,74.89
2018-05-04T15:47:07.392Z,77.45
2018-05-04T15:49:35.268Z,77.95
2018-05-04T15:52:06.555Z,78.88
2018-05-04T15:54:34.286Z,79.90
2018-05-04T15:57:02.787Z,78.75
2018-05-04T15:59:30.580Z,79.37
2018-05-04T16:01:58.325Z,79.27
2018-05-04T16:04:27.279Z,80.54
2018-05-04T16:06:55.024Z,77.64
2018-05-04T16:09:23.508Z,78.71
2018-05-04T16:11:51.226Z,78.31
2018-05-04T16:14:18.990Z,78.49
2018-05-04T16:16:46.676Z,79.90
2018-05-04T16:19:14.358Z,78.99
2018-05-04T16:21:42.939Z,78.23
2018-05-04T16:24:10.733Z,79.33
2018-05-04T16:26:38.528Z,79.13
2018-05-04T16:29:06.204Z,78.65
2018-05-04T16:31:34.235Z,78.70
2018-05-04T16:34:01.909Z,79.08
2018-05-04T16:36:29.993Z,78.67
2018-05-04T16:38:57.592Z,78.49
2018-05-04T16:41:25.286Z,78.67
2018-05-04T16:43:53.060Z,78.46
2018-05-04T16:46:27.441Z,77.89
2018-05-04T16:49:00.634Z,79.13
2018-05-04T16:51:28.352Z,78.15
2018-05-04T16:53:56.073Z,77.40
2018-05-04T16:56:24.363Z,78.92
2018-05-04T16:58:51.976Z,79.46
2018-05-04T17:01:19.689Z,79.99
2018-05-04T17:03:47.420Z,78.55
2018-05-04T17:06:15.176Z,78.70
2018-05-04T17:08:43.037Z,77.97
2018-05-04T17:11:11.130Z,79.08
2018-05-04T17:13:39.654Z,77.39
2018-05-04T17:16:07.642Z,77.69
2018-05-04T17:18:35.782Z,79.37
2018-05-04T17:21:03.853Z,80.18
2018-05-04T17:23:32.362Z,82.07
2018-05-04T17:26:00.147Z,82.63
2018-05-04T17:28:27.921Z,81.49
2018-05-04T17:30:55.642Z,81.69
2018-05-04T17:33:23.433Z,82.41
2018-05-04T17:35:51.170Z,81.08
2018-05-04T17:38:18.928Z,82.94
2018-05-04T17:40:46.837Z,82.75
2018-05-04T17:43:14.546Z,84.58
2018-05-04T17:45:42.389Z,85.03
2018-05-04T17:48:10.119Z,84.82
2018-05-04T17:50:37.967Z,85.77
2018-05-04T17:53:05.700Z,85.43
2018-05-04T17:55:33.428Z,84.78
2018-05-04T17:58:01.119Z,84.81
2018-05-04T18:00:28.997Z,85.44
2018-05-04T18:02:56.704Z,85.40
2018-05-04T18:05:24.514Z,85.64
2018-05-04T18:07:53.336Z,84.98
2018-05-04T18:10:21.400Z,86.19
2018-05-04T18:12:49.990Z,86.72
2018-05-04T18:15:19.025Z,86.23
2018-05-04T18:17:47.684Z,86.38
2018-05-04T18:20:16.123Z,86.34
2018-05-04T18:22:43.866Z,87.65
2018-05-04T18:25:11.886Z,86.55
2018-05-04T18:27:41.331Z,85.74
2018-05-04T18:30:09.188Z,86.07
2018-05-04T18:32:37.129Z,86.39
2018-05-04T18:35:04.848Z,87.33
2018-05-04T18:37:32.983Z,88.84
2018-05-04T18:40:01.013Z,88.15
2018-05-04T18:42:28.731Z,88.33
2018-05-04T18:44:57.386Z,88.82
2018-05-04T18:47:25.964Z,88.26
2018-05-04T18:49:55.164Z,87.23
2018-05-04T18:52:23.478Z,87.45
2018-05-04T18:54:51.394Z,87.43
2018-05-04T18:57:19.181Z,87.42
2018-05-04T18:59:48.083Z,86.92
2018-05-04T19:02:21.424Z,87.30
2018-05-04T19:04:49.248Z,88.49
2018-05-04T19:07:18.398Z,87.35
2018-05-04T19:09:46.104Z,87.62
2018-05-04T19:12:13.943Z,87.81
2018-05-04T19:14:41.713Z,87.70
2018-05-04T19:17:09.442Z,88.33
2018-05-04T19:19:37.727Z,88.04
2018-05-04T19:22:05.608Z,87.25
2018-05-04T19:24:33.312Z,86.41
2018-05-04T19:27:01.032Z,87.19
2018-05-04T19:29:28.963Z,88.07
2018-05-04T19:31:56.689Z,88.10
2018-05-04T19:34:24.440Z,88.02
2018-05-04T19:36:52.189Z,87.74
2018-05-04T19:39:20.692Z,87.87
2018-05-04T19:41:51.619Z,90.03
2018-05-04T19:44:19.416Z,90.94
2018-05-04T19:46:47.228Z,90.75
2018-05-04T19:49:15.005Z,90.59
2018-05-04T19:51:43.512Z,90.43
2018-05-04T19:54:12.218Z,90.18
2018-05-04T19:56:40.021Z,90.54
2018-05-04T19:59:07.688Z,90.42
2018-05-04T20:01:35.448Z,89.94
2018-05-04T20:04:03.620Z,89.32
2018-05-04T20:06:32.720Z,88.97
2018-05-04T20:09:00.692Z,89.44
2018-05-04T20:11:28.548Z,89.20
2018-05-04T20:13:56.264Z,88.99
2018-05-04T20:16:23.959Z,88.99
2018-05-04T20:18:51.584Z,89.07
2018-05-04T20:21:20.367Z,89.01
2018-05-04T20:23:48.840Z,88.86
2018-05-04T20:26:16.558Z,90.63
2018-05-04T20:28:44.295Z,89.96
2018-05-04T20:31:11.952Z,90.18
2018-05-04T20:33:39.577Z,89.76
2018-05-04T20:36:07.246Z,89.30
2018-05-04T20:38:34.959Z,89.45
2018-05-04T20:41:02.779Z,89.34
2018-05-04T20:43:30.599Z,89.23
2018-05-04T20:45:58.282Z,89.00
2018-05-04T20:48:26.007Z,89.19
2018-05-04T20:50:53.622Z,89.53
2018-05-04T20:53:21.290Z,90.77
2018-05-04T20:55:49.000Z,91.79
2018-05-04T20:58:16.693Z,91.76
2018-05-04T21:00:44.397Z,91.91
2018-05-04T21:03:12.064Z,91.47
2018-05-04T21:05:40.312Z,91.04
2018-05-04T21:08:08.321Z,90.50
2018-05-04T21:10:36.064Z,90.67
2018-05-04T21:13:03.835Z,91.09
2018-05-04T21:15:31.532Z,90.62
2018-05-04T21:17:59.357Z,90.34
2018-05-04T21:20:26.961Z,90.65
2018-05-04T21:22:54.746Z,91.91
2018-05-04T21:25:22.408Z,91.82
2018-05-04T21:27:51.634Z,90.97
2018-05-04T21:30:20.051Z,92.01
2018-05-04T21:32:47.744Z,91.21
2018-05-04T21:35:15.493Z,91.57
2018-05-04T21:37:43.107Z,92.33
2018-05-04T21:40:10.728Z,92.75
2018-05-04T21:42:38.385Z,92.13
2018-05-04T21:45:06.014Z,92.49
2018-05-04T21:47:33.775Z,91.94
2018-05-04T21:50:01.474Z,90.93
2018-05-04T21:52:29.236Z,90.70
2018-05-04T21:54:56.874Z,90.32
2018-05-04T21:57:24.545Z,91.30
2018-05-04T21:59:52.163Z,90.54
2018-05-04T22:02:19.843Z,89.99
2018-05-04T22:04:47.598Z,89.56
2018-05-04T22:07:15.168Z,90.46
2018-05-04T22:09:42.798Z,90.46
2018-05-04T22:12:10.503Z,91.21
2018-05-04T22:14:38.207Z,89.88
2018-05-04T22:17:06.918Z,89.73
2018-05-04T22:19:34.565Z,89.42
2018-05-04T22:22:02.191Z,89.32
2018-05-04T22:24:29.873Z,90.08
2018-05-04T22:26:57.553Z,90.49
2018-05-04T22:29:25.154Z,90.52
2018-05-04T22:31:52.835Z,90.35
2018-05-04T22:34:21.550Z,90.91
2018-05-04T22:36:49.227Z,91.55
2018-05-04T22:39:16.844Z,91.35
2018-05-04T22:41:44.493Z,90.92
2018-05-04T22:44:12.117Z,91.35
2018-05-04T22:46:39.798Z,92.00
2018-05-04T22:49:07.453Z,91.97
2018-05-04T22:51:35.109Z,91.32
2018-05-04T22:54:02.730Z,91.55
2018-05-04T22:56:30.509Z,92.40
2018-05-04T22:58:58.169Z,91.33
2018-05-04T23:01:25.836Z,90.55
2018-05-04T23:03:53.611Z,90.77
2018-05-04T23:06:21.350Z,90.95
2018-05-04T23:08:48.984Z,90.92
2018-05-04T23:11:16.625Z,90.77
2018-05-04T23:13:45.268Z,90.77
2018-05-04T23:16:13.102Z,91.71
2018-05-04T23:18:40.769Z,91.95
2018-05-04T23:21:08.384Z,92.35
2018-05-04T23:23:36.043Z,92.60
2018-05-04T23:26:03.645Z,92.82
2018-05-04T23:28:31.350Z,92.80
2018-05-04T23:30:58.986Z,92.08
2018-05-04T23:33:26.772Z,92.37
2018-05-04T23:35:54.553Z,91.92
2018-05-04T23:38:22.223Z,91.65
2018-05-04T23:40:50.520Z,92.57
2018-05-04T23:43:18.204Z,93.12
2018-05-04T23:45:45.837Z,93.26
2018-05-04T23:48:13.589Z,93.21
2018-05-04T23:50:41.220Z,92.91
2018-05-04T23:53:08.892Z,93.31
2018-05-04T23:55:36.496Z,92.80
2018-05-04T23:58:04.174Z,92.02
